createdAt,value
2023-01-20T00:01:29.879Z,95231.06
2023-01-20T00:03:57.516Z,95237.78
2023-01-20T00:06:27.867Z,95232.56
2023-01-20T00:08:56.864Z,95233.00
2023-01-20T00:11:24.742Z,95248.81
2023-01-20T00:14:00.469Z,95239.03
2023-01-20T00:16:28.528Z,95237.41
2023-01-20T00:18:55.481Z,95238.19
2023-01-20T00:21:23.361Z,95224.31
2023-01-20T00:23:50.488Z,95243.53
2023-01-20T00:26:20.309Z,95233.75
2023-01-20T00:28:48.253Z,95244.66
2023-01-20T00:31:27.097Z,95243.19
2023-01-20T00:33:56.164Z,95244.00
2023-01-20T00:36:24.308Z,95248.81
2023-01-20T00:38:52.154Z,95257.72
2023-01-20T00:41:19.517Z,95253.22
2023-01-20T00:43:46.398Z,95253.09
2023-01-20T00:46:14.176Z,95258.13
2023-01-20T00:48:41.633Z,95257.38
2023-01-20T00:51:09.194Z,95249.28
2023-01-20T00:53:43.850Z,95247.53
2023-01-20T00:56:10.673Z,95268.88
2023-01-20T00:58:37.426Z,95254.03
2023-01-20T01:01:04.606Z,95265.94
2023-01-20T01:03:31.441Z,95242.50
2023-01-20T01:06:13.377Z,95267.56
2023-01-20T01:08:40.324Z,95247.41
2023-01-20T01:11:07.267Z,95277.59
2023-01-20T01:13:34.499Z,95285.31
2023-01-20T01:16:01.388Z,95270.38
2023-01-20T01:18:28.197Z,95273.72
2023-01-20T01:20:54.897Z,95276.47
2023-01-20T01:23:22.128Z,95272.50
2023-01-20T01:25:48.828Z,95285.19
2023-01-20T01:28:15.565Z,95269.38
2023-01-20T01:30:42.333Z,95254.38
2023-01-20T01:33:09.055Z,95275.00
2023-01-20T01:35:35.689Z,95291.66
2023-01-20T01:38:02.389Z,95279.03
2023-01-20T01:40:29.156Z,95288.84
2023-01-20T01:42:55.816Z,95275.31
2023-01-20T01:45:26.004Z,95287.38
2023-01-20T01:48:05.577Z,95286.38
2023-01-20T01:50:38.440Z,95272.50
2023-01-20T01:53:06.311Z,95278.41
2023-01-20T01:55:53.936Z,95283.69
2023-01-20T01:58:24.985Z,95286.03
2023-01-20T02:00:52.273Z,95268.97
2023-01-20T02:03:19.812Z,95284.16
2023-01-20T02:05:50.027Z,95273.72
2023-01-20T02:08:17.313Z,95293.94
2023-01-20T02:10:43.996Z,95276.94
2023-01-20T02:13:11.217Z,95292.72
2023-01-20T02:15:55.823Z,95269.84
2023-01-20T02:18:34.090Z,95293.00
2023-01-20T02:21:27.436Z,95303.66
2023-01-20T02:24:12.813Z,95287.25
2023-01-20T02:26:53.570Z,95293.41
2023-01-20T02:29:50.690Z,95293.81
2023-01-20T02:32:23.282Z,95303.44
2023-01-20T02:34:54.440Z,95301.91
2023-01-20T02:37:28.631Z,95293.59
2023-01-20T02:40:05.326Z,95300.34
2023-01-20T02:42:41.220Z,95273.22
2023-01-20T02:45:24.008Z,95296.56
2023-01-20T02:48:16.915Z,95308.22
2023-01-20T02:51:09.827Z,95311.59
2023-01-20T02:53:50.530Z,95317.84
2023-01-20T02:56:19.837Z,95309.00
2023-01-20T02:58:50.655Z,95328.47
2023-01-20T03:01:22.899Z,95316.50
2023-01-20T03:03:54.365Z,95271.44
2023-01-20T03:06:25.490Z,95320.16
2023-01-20T03:08:55.340Z,95312.31
2023-01-20T03:11:22.261Z,95324.03
2023-01-20T03:13:55.281Z,95330.50
2023-01-20T03:16:24.900Z,95297.47
2023-01-20T03:18:52.109Z,95337.06
2023-01-20T03:21:19.216Z,95341.19
2023-01-20T03:23:51.814Z,95334.53
2023-01-20T03:26:20.511Z,95346.50
2023-01-20T03:28:48.893Z,95334.25
2023-01-20T03:31:20.848Z,95343.22
2023-01-20T03:33:50.325Z,95339.69
2023-01-20T03:36:20.491Z,95323.34
2023-01-20T03:38:48.206Z,95343.00
2023-01-20T03:41:20.278Z,95345.19
2023-01-20T03:44:04.637Z,95338.88
2023-01-20T03:46:39.047Z,95336.63
2023-01-20T03:49:17.942Z,95360.84
2023-01-20T03:52:05.023Z,95356.69
2023-01-20T03:54:38.345Z,95365.41
2023-01-20T03:57:12.183Z,95375.91
2023-01-20T03:59:42.310Z,95358.31
2023-01-20T04:02:11.015Z,95364.38
2023-01-20T04:04:40.535Z,95364.44
2023-01-20T04:07:11.445Z,95377.25
2023-01-20T04:09:48.017Z,95369.41
2023-01-20T04:12:14.751Z,95380.25
2023-01-20T04:14:41.407Z,95376.81
2023-01-20T04:17:08.491Z,95374.75
2023-01-20T04:19:35.242Z,95380.38
2023-01-20T04:22:12.778Z,95388.22
2023-01-20T04:24:49.106Z,95385.13
2023-01-20T04:27:15.747Z,95387.78
2023-01-20T04:29:43.027Z,95381.59
2023-01-20T04:32:11.873Z,95390.88
2023-01-20T04:34:38.965Z,95397.69
2023-01-20T04:37:05.728Z,95394.72
2023-01-20T04:39:32.383Z,95398.31
2023-01-20T04:41:59.048Z,95404.78
2023-01-20T04:44:25.973Z,95401.88
2023-01-20T04:46:57.420Z,95400.25
2023-01-20T04:49:24.341Z,95392.28
2023-01-20T04:51:51.028Z,95392.91
2023-01-20T04:54:17.677Z,95412.69
2023-01-20T04:56:44.585Z,95372.81
2023-01-20T04:59:11.250Z,95409.91
2023-01-20T05:01:37.947Z,95417.88
2023-01-20T05:04:04.675Z,95420.25
2023-01-20T05:06:31.502Z,95409.34
2023-01-20T05:08:58.201Z,95426.19
2023-01-20T05:11:24.917Z,95445.72
2023-01-20T05:13:51.586Z,95433.88
2023-01-20T05:16:25.022Z,95423.72
2023-01-20T05:18:51.739Z,95456.94
2023-01-20T05:21:18.437Z,95444.41
2023-01-20T05:23:45.244Z,95429.63
2023-01-20T05:26:11.887Z,95448.25
2023-01-20T05:28:39.285Z,95425.47
2023-01-20T05:31:06.059Z,95455.19
2023-01-20T05:33:32.800Z,95480.75
2023-01-20T05:35:59.473Z,95457.38
2023-01-20T05:38:26.304Z,95458.28
2023-01-20T05:40:59.919Z,95464.78
2023-01-20T05:43:26.967Z,95454.00
2023-01-20T05:45:53.583Z,95465.09
2023-01-20T05:48:20.349Z,95476.91
2023-01-20T05:50:46.991Z,95476.78
2023-01-20T05:53:14.110Z,95479.13
2023-01-20T05:55:40.773Z,95476.75
2023-01-20T05:58:07.710Z,95483.84
2023-01-20T06:00:34.858Z,95478.22
2023-01-20T06:03:01.664Z,95477.78
2023-01-20T06:05:28.531Z,95485.19
2023-01-20T06:07:56.000Z,95496.25
2023-01-20T06:10:29.596Z,95492.59
2023-01-20T06:12:56.811Z,95490.34
2023-01-20T06:15:24.412Z,95497.16
2023-01-20T06:17:52.035Z,95496.88
2023-01-20T06:20:19.052Z,95488.72
2023-01-20T06:22:45.771Z,95487.56
2023-01-20T06:25:12.429Z,95518.88
2023-01-20T06:27:39.030Z,95509.44
2023-01-20T06:30:06.570Z,95499.09
2023-01-20T06:32:33.265Z,95510.91
2023-01-20T06:34:59.929Z,95529.66
2023-01-20T06:37:26.599Z,95504.41
2023-01-20T06:39:53.268Z,95525.09
2023-01-20T06:42:19.924Z,95510.28
2023-01-20T06:44:46.697Z,95513.53
2023-01-20T06:47:13.403Z,95540.44
2023-01-20T06:49:40.089Z,95548.44
2023-01-20T06:52:06.850Z,95520.47
2023-01-20T06:54:33.538Z,95521.66
2023-01-20T06:57:00.347Z,95550.63
2023-01-20T06:59:27.077Z,95551.22
2023-01-20T07:01:53.811Z,95540.91
2023-01-20T07:04:20.509Z,95574.31
2023-01-20T07:06:47.229Z,95551.81
2023-01-20T07:09:14.274Z,95538.66
2023-01-20T07:11:40.990Z,95548.44
2023-01-20T07:14:08.333Z,95552.56
2023-01-20T07:16:35.481Z,95565.28
2023-01-20T07:19:02.596Z,95560.84
2023-01-20T07:21:29.475Z,95574.00
2023-01-20T07:23:56.158Z,95588.94
2023-01-20T07:26:26.408Z,95584.06
2023-01-20T07:28:53.247Z,95572.09
2023-01-20T07:31:28.227Z,95590.56
2023-01-20T07:33:56.693Z,95585.13
2023-01-20T07:36:23.888Z,95585.56
2023-01-20T07:38:51.113Z,95598.72
2023-01-20T07:41:20.011Z,95602.88
2023-01-20T07:43:49.790Z,95596.50
2023-01-20T07:46:16.818Z,95607.00
2023-01-20T07:48:43.777Z,95618.69
2023-01-20T07:51:13.084Z,95605.22
2023-01-20T07:53:47.240Z,95617.19
2023-01-20T07:56:17.071Z,95618.50
2023-01-20T07:58:45.416Z,95621.16
2023-01-20T08:01:18.553Z,95616.72
2023-01-20T08:03:45.547Z,95635.50
2023-01-20T08:06:14.771Z,95624.13
2023-01-20T08:08:41.666Z,95626.78
2023-01-20T08:11:10.054Z,95626.31
2023-01-20T08:13:36.718Z,95627.78
2023-01-20T08:16:06.206Z,95631.47
2023-01-20T08:18:34.329Z,95634.41
2023-01-20T08:21:06.393Z,95637.22
2023-01-20T08:23:34.413Z,95654.09
2023-01-20T08:26:03.347Z,95643.88
2023-01-20T08:28:30.742Z,95651.25
2023-01-20T08:31:08.503Z,95645.63
2023-01-20T08:33:35.282Z,95658.03
2023-01-20T08:36:13.162Z,95663.97
2023-01-20T08:38:40.470Z,95668.09
2023-01-20T08:41:13.201Z,95667.53
2023-01-20T08:43:39.889Z,95666.50
2023-01-20T08:46:09.316Z,95678.97
2023-01-20T08:48:37.955Z,95655.38
2023-01-20T08:51:10.337Z,95683.88
2023-01-20T08:53:44.062Z,95681.22
2023-01-20T08:56:12.097Z,95688.31
2023-01-20T08:58:38.944Z,95689.19
2023-01-20T09:01:14.775Z,95684.16
2023-01-20T09:03:49.378Z,95690.25
2023-01-20T09:06:27.224Z,95702.81
2023-01-20T09:08:55.140Z,95687.84
2023-01-20T09:11:25.072Z,95701.63
2023-01-20T09:13:52.601Z,95709.34
2023-01-20T09:16:19.737Z,95708.63
2023-01-20T09:18:46.796Z,95705.66
2023-01-20T09:21:13.651Z,95713.06
2023-01-20T09:23:43.004Z,95710.41
2023-01-20T09:26:09.981Z,95724.00
2023-01-20T09:28:36.865Z,95715.72
2023-01-20T09:31:08.584Z,95731.41
2023-01-20T09:33:38.331Z,95731.25
2023-01-20T09:36:07.946Z,95729.78
2023-01-20T09:38:53.161Z,95741.19
2023-01-20T09:41:49.349Z,95743.25
2023-01-20T09:44:15.977Z,95733.63
2023-01-20T09:47:17.425Z,95735.09
2023-01-20T09:50:23.567Z,95736.16
2023-01-20T09:53:04.786Z,95739.13
2023-01-20T09:55:40.960Z,95741.97
2023-01-20T09:58:25.490Z,95732.63
2023-01-20T10:00:59.214Z,95740.03
2023-01-20T10:03:47.305Z,95756.03
2023-01-20T10:06:24.950Z,95747.75
2023-01-20T10:09:06.021Z,95742.28
2023-01-20T10:11:43.622Z,95761.81
2023-01-20T10:14:34.624Z,95752.94
2023-01-20T10:17:16.568Z,95756.78
2023-01-20T10:20:03.960Z,95752.78
2023-01-20T10:22:47.971Z,95751.75
2023-01-20T10:25:23.744Z,95752.50
2023-01-20T10:27:54.691Z,95758.72
2023-01-20T10:30:25.851Z,95758.16
2023-01-20T10:32:52.451Z,95755.47
2023-01-20T10:35:33.477Z,95761.25
2023-01-20T10:38:00.473Z,95749.72
2023-01-20T10:40:42.257Z,95743.78
2023-01-20T10:43:17.036Z,95759.06
2023-01-20T10:45:56.597Z,95758.16
2023-01-20T10:48:37.550Z,95746.75
2023-01-20T10:51:19.431Z,95758.59
2023-01-20T10:53:57.479Z,95753.28
2023-01-20T10:56:27.084Z,95750.91
2023-01-20T10:58:53.991Z,95749.72
2023-01-20T11:01:21.623Z,95749.56
2023-01-20T11:03:49.502Z,95746.63
2023-01-20T11:06:26.715Z,95739.81
2023-01-20T11:08:55.127Z,95753.28
2023-01-20T11:11:24.572Z,95757.13
2023-01-20T11:13:52.486Z,95754.31
2023-01-20T11:16:25.612Z,95755.19
2023-01-20T11:19:01.168Z,95758.00
2023-01-20T11:21:37.046Z,95761.84
2023-01-20T11:24:55.876Z,95755.31
2023-01-20T11:27:26.896Z,95756.63
2023-01-20T11:29:59.361Z,95756.47
2023-01-20T11:32:25.965Z,95754.38
2023-01-20T11:34:54.731Z,95747.25
2023-01-20T11:37:38.131Z,95765.78
2023-01-20T11:40:19.291Z,95751.44
2023-01-20T11:42:47.987Z,95753.81
2023-01-20T11:45:26.047Z,95754.44
2023-01-20T11:48:16.075Z,95767.16
2023-01-20T11:51:04.582Z,95763.13
2023-01-20T11:53:35.632Z,95750.06
2023-01-20T11:56:19.612Z,95754.53
2023-01-20T11:58:58.674Z,95761.03
2023-01-20T12:01:27.577Z,95759.88
2023-01-20T12:04:29.534Z,95750.25
2023-01-20T12:07:03.742Z,95764.63
2023-01-20T12:09:37.718Z,95745.38
2023-01-20T12:12:35.538Z,95760.78
2023-01-20T12:15:06.099Z,95756.34
2023-01-20T12:17:32.752Z,95752.94
2023-01-20T12:20:19.680Z,95756.34
2023-01-20T12:23:01.717Z,95758.72
2023-01-20T12:25:34.289Z,95771.63
2023-01-20T12:28:18.377Z,95763.03
2023-01-20T12:30:52.065Z,95767.00
2023-01-20T12:33:39.019Z,95767.75
2023-01-20T12:36:26.841Z,95767.75
2023-01-20T12:39:02.499Z,95777.41
2023-01-20T12:42:09.507Z,95778.28
2023-01-20T12:45:01.027Z,95764.94
2023-01-20T12:48:03.177Z,95780.63
2023-01-20T12:50:57.715Z,95776.19
2023-01-20T12:53:43.209Z,95776.91
2023-01-20T12:56:28.695Z,95782.25
2023-01-20T12:59:18.829Z,95773.06
2023-01-20T13:02:24.222Z,95786.97
2023-01-20T13:05:24.325Z,95772.47
2023-01-20T13:08:15.595Z,95786.53
2023-01-20T13:10:55.495Z,95774.09
2023-01-20T13:14:03.989Z,95782.88
2023-01-20T13:16:45.532Z,95786.72
2023-01-20T13:19:14.276Z,95776.34
2023-01-20T13:21:42.599Z,95775.00
2023-01-20T13:24:19.103Z,95785.53
2023-01-20T13:26:48.300Z,95785.53
2023-01-20T13:29:43.577Z,95787.31
2023-01-20T13:32:32.117Z,95794.13
2023-01-20T13:35:00.161Z,95797.97
2023-01-20T13:37:35.712Z,95793.25
2023-01-20T13:40:03.652Z,95803.31
2023-01-20T13:42:36.319Z,95804.50
2023-01-20T13:45:11.831Z,95801.84
2023-01-20T13:48:02.144Z,95808.94
2023-01-20T13:50:33.280Z,95814.72
2023-01-20T13:53:06.059Z,95802.75
2023-01-20T13:55:41.669Z,95823.16
2023-01-20T13:58:26.071Z,95826.56
2023-01-20T14:00:54.811Z,95826.13
2023-01-20T14:03:31.987Z,95823.16
2023-01-20T14:06:04.343Z,95832.78
2023-01-20T14:08:38.889Z,95835.44
2023-01-20T14:11:24.765Z,95825.09
2023-01-20T14:14:05.930Z,95817.38
2023-01-20T14:16:35.656Z,95837.06
2023-01-20T14:19:18.593Z,95830.69
2023-01-20T14:21:45.329Z,95839.44
2023-01-20T14:24:31.067Z,95833.50
2023-01-20T14:27:24.145Z,95846.69
2023-01-20T14:29:53.080Z,95845.50
2023-01-20T14:32:26.564Z,95852.63
2023-01-20T14:34:54.119Z,95845.06
2023-01-20T14:37:36.225Z,95855.84
2023-01-20T14:40:12.009Z,95861.47
2023-01-20T14:42:39.945Z,95850.22
2023-01-20T14:45:22.253Z,95855.59
2023-01-20T14:47:50.603Z,95859.28
2023-01-20T14:50:19.177Z,95866.53
2023-01-20T14:52:46.505Z,95867.28
2023-01-20T14:55:40.719Z,95877.22
2023-01-20T14:58:16.492Z,95876.00
2023-01-20T15:00:45.265Z,95879.41
2023-01-20T15:03:24.878Z,95878.38
2023-01-20T15:06:04.535Z,95882.84
2023-01-20T15:08:33.981Z,95876.31
2023-01-20T15:11:18.924Z,95880.03
2023-01-20T15:13:53.145Z,95888.16
2023-01-20T15:16:36.438Z,95879.84
2023-01-20T15:19:15.549Z,95898.81
2023-01-20T15:21:49.588Z,95894.50
2023-01-20T15:24:31.308Z,95896.28
2023-01-20T15:27:03.257Z,95895.69
2023-01-20T15:29:31.319Z,95905.03
2023-01-20T15:32:00.956Z,95898.09
2023-01-20T15:34:28.326Z,95892.56
2023-01-20T15:36:56.083Z,95904.44
2023-01-20T15:39:26.099Z,95897.47
2023-01-20T15:41:55.793Z,95903.56
2023-01-20T15:44:24.513Z,95899.09
2023-01-20T15:46:51.831Z,95909.03
2023-01-20T15:49:19.120Z,95909.75
2023-01-20T15:51:46.146Z,95914.34
2023-01-20T15:54:13.820Z,95916.44
2023-01-20T15:56:42.190Z,95925.91
2023-01-20T15:59:13.150Z,95912.59
2023-01-20T16:01:40.225Z,95922.53
2023-01-20T16:04:06.904Z,95908.41
2023-01-20T16:06:34.332Z,95924.75
2023-01-20T16:09:02.317Z,95930.22
2023-01-20T16:11:29.033Z,95927.41
2023-01-20T16:13:55.712Z,95932.28
2023-01-20T16:16:24.054Z,95934.69
2023-01-20T16:18:50.820Z,95936.75
2023-01-20T16:21:19.559Z,95941.47
2023-01-20T16:23:46.342Z,95928.56
2023-01-20T16:26:22.684Z,95944.13
2023-01-20T16:28:51.807Z,95945.00
2023-01-20T16:31:19.516Z,95942.19
2023-01-20T16:33:46.655Z,95926.91
2023-01-20T16:36:15.262Z,95946.63
2023-01-20T16:38:42.288Z,95950.78
2023-01-20T16:41:27.761Z,95956.56
2023-01-20T16:43:55.512Z,95957.72
2023-01-20T16:46:23.703Z,95956.56
2023-01-20T16:48:51.523Z,95949.28
2023-01-20T16:51:21.320Z,95967.81
2023-01-20T16:53:48.824Z,95945.38
2023-01-20T16:56:17.368Z,95958.00
2023-01-20T16:58:47.310Z,95960.22
2023-01-20T17:01:14.126Z,95969.25
2023-01-20T17:03:43.887Z,95961.25
2023-01-20T17:06:19.078Z,95978.75
2023-01-20T17:08:47.560Z,95984.38
2023-01-20T17:11:21.993Z,95978.91
2023-01-20T17:13:48.863Z,95987.94
2023-01-20T17:16:15.893Z,95989.13
2023-01-20T17:18:45.678Z,95994.91
2023-01-20T17:21:13.869Z,95989.59
2023-01-20T17:23:41.231Z,95991.94
2023-01-20T17:26:08.916Z,95986.31
2023-01-20T17:28:35.678Z,96005.03
2023-01-20T17:31:06.542Z,96012.72
2023-01-20T17:33:34.063Z,95998.91
2023-01-20T17:36:04.093Z,95997.88
2023-01-20T17:38:33.362Z,96001.00
2023-01-20T17:41:04.274Z,95995.94
2023-01-20T17:43:35.653Z,96016.69
2023-01-20T17:46:15.643Z,96010.75
2023-01-20T17:48:43.467Z,96021.09
2023-01-20T17:51:14.800Z,96016.22
2023-01-20T17:53:46.440Z,96012.34
2023-01-20T17:56:14.148Z,96022.75
2023-01-20T17:58:43.245Z,96028.38
2023-01-20T18:01:11.004Z,96020.63
2023-01-20T18:03:40.003Z,96024.66
2023-01-20T18:06:08.700Z,96028.16
2023-01-20T18:08:35.931Z,96029.38
2023-01-20T18:11:15.310Z,96031.13
2023-01-20T18:13:44.916Z,96029.34
2023-01-20T18:16:13.303Z,96032.47
2023-01-20T18:18:41.179Z,96030.22
2023-01-20T18:21:22.464Z,96042.38
2023-01-20T18:23:50.217Z,96027.38
2023-01-20T18:26:19.819Z,96041.63
2023-01-20T18:28:49.446Z,96040.00
2023-01-20T18:31:19.011Z,96037.94
2023-01-20T18:33:54.638Z,96032.88
2023-01-20T18:36:24.145Z,96040.00
2023-01-20T18:38:56.184Z,96043.88
2023-01-20T18:41:24.058Z,96050.66
2023-01-20T18:43:51.629Z,96049.34
2023-01-20T18:46:19.115Z,96040.75
2023-01-20T18:48:47.400Z,96048.00
2023-01-20T18:51:15.902Z,96043.97
2023-01-20T18:53:46.249Z,96041.59
2023-01-20T18:56:15.447Z,96052.41
2023-01-20T18:58:49.732Z,96044.97
2023-01-20T19:01:20.105Z,96053.72
2023-01-20T19:03:48.587Z,96055.22
2023-01-20T19:06:17.918Z,96056.38
2023-01-20T19:08:45.574Z,96050.28
2023-01-20T19:11:15.700Z,96040.75
2023-01-20T19:13:43.736Z,96057.56
2023-01-20T19:16:13.008Z,96069.22
2023-01-20T19:18:41.285Z,96059.28
2023-01-20T19:21:11.605Z,96067.88
2023-01-20T19:23:39.392Z,96062.53
2023-01-20T19:26:11.807Z,96064.34
2023-01-20T19:28:39.623Z,96077.31
2023-01-20T19:31:09.381Z,96080.63
2023-01-20T19:33:36.887Z,96063.41
2023-01-20T19:36:06.239Z,96060.28
2023-01-20T19:38:36.280Z,96080.44
2023-01-20T19:41:11.702Z,96078.81
2023-01-20T19:43:38.983Z,96076.44
2023-01-20T19:46:17.923Z,96071.03
2023-01-20T19:48:45.681Z,96086.03
2023-01-20T19:51:16.048Z,96084.38
2023-01-20T19:53:44.383Z,96090.31
2023-01-20T19:56:13.507Z,96070.22
2023-01-20T19:58:40.207Z,96091.88
2023-01-20T20:01:12.921Z,96093.38
2023-01-20T20:03:39.738Z,96090.66
2023-01-20T20:06:08.785Z,96097.63
2023-01-20T20:08:39.130Z,96100.75
2023-01-20T20:11:10.468Z,96087.94
2023-01-20T20:13:37.200Z,96101.41
2023-01-20T20:16:04.914Z,96095.59
2023-01-20T20:18:32.229Z,96109.44
2023-01-20T20:20:59.257Z,96099.56
2023-01-20T20:23:26.488Z,96102.47
2023-01-20T20:25:57.590Z,96101.16
2023-01-20T20:28:25.305Z,96087.78
2023-01-20T20:30:52.270Z,96099.56
2023-01-20T20:33:19.296Z,96111.16
2023-01-20T20:35:46.327Z,96102.00
2023-01-20T20:38:12.991Z,96095.28
2023-01-20T20:40:39.686Z,96115.13
2023-01-20T20:43:06.360Z,96108.00
2023-01-20T20:45:34.127Z,96094.78
2023-01-20T20:48:00.800Z,96128.00
2023-01-20T20:50:28.139Z,96112.16
2023-01-20T20:52:56.800Z,96114.38
2023-01-20T20:55:25.213Z,96111.25
2023-01-20T20:57:52.008Z,96109.00
2023-01-20T21:00:23.442Z,96121.91
2023-01-20T21:02:50.372Z,96118.53
2023-01-20T21:05:19.025Z,96112.56
2023-01-20T21:07:46.000Z,96121.91
2023-01-20T21:10:14.394Z,96141.00
2023-01-20T21:12:41.538Z,96121.91
2023-01-20T21:15:10.516Z,96129.25
2023-01-20T21:17:38.160Z,96127.34
2023-01-20T21:20:05.315Z,96130.00
2023-01-20T21:22:32.029Z,96125.13
2023-01-20T21:24:58.885Z,96127.03
2023-01-20T21:27:25.638Z,96124.47
2023-01-20T21:29:52.358Z,96130.59
2023-01-20T21:32:19.078Z,96136.03
2023-01-20T21:34:45.794Z,96125.38
2023-01-20T21:37:12.443Z,96129.75
2023-01-20T21:39:39.075Z,96124.13
2023-01-20T21:42:06.201Z,96128.25
2023-01-20T21:44:34.183Z,96102.72
2023-01-20T21:47:03.976Z,96139.69
2023-01-20T21:49:49.384Z,96133.47
2023-01-20T21:52:37.174Z,96133.88
2023-01-20T21:55:05.298Z,96136.28
2023-01-20T21:57:35.521Z,96138.75
2023-01-20T22:00:03.740Z,96126.34
2023-01-20T22:02:39.390Z,96146.25
2023-01-20T22:05:06.562Z,96150.91
2023-01-20T22:07:33.322Z,96145.28
2023-01-20T22:10:00.114Z,96133.53
2023-01-20T22:12:26.852Z,96137.09
2023-01-20T22:14:53.620Z,96138.41
2023-01-20T22:17:20.470Z,96141.78
2023-01-20T22:19:47.183Z,96155.44
2023-01-20T22:22:15.284Z,96155.78
2023-01-20T22:24:42.498Z,96152.41
2023-01-20T22:27:09.247Z,96147.94
2023-01-20T22:29:36.038Z,96157.84
2023-01-20T22:32:04.217Z,96157.84
2023-01-20T22:34:31.113Z,96152.13
2023-01-20T22:37:00.528Z,96156.75
2023-01-20T22:39:28.256Z,96159.41
2023-01-20T22:41:55.019Z,96149.16
2023-01-20T22:44:21.814Z,96146.34
2023-01-20T22:46:48.520Z,96155.09
2023-01-20T22:49:15.221Z,96174.00
2023-01-20T22:51:41.990Z,96159.28
2023-01-20T22:54:10.681Z,96157.94
2023-01-20T22:56:39.079Z,96164.06
2023-01-20T22:59:06.286Z,96151.34
2023-01-20T23:01:35.281Z,96163.50
2023-01-20T23:04:05.409Z,96168.13
2023-01-20T23:06:34.659Z,96167.53
2023-01-20T23:09:07.943Z,96171.13
2023-01-20T23:11:36.550Z,96169.44
2023-01-20T23:14:03.844Z,96166.69
2023-01-20T23:16:30.683Z,96163.50
2023-01-20T23:18:57.513Z,96167.38
2023-01-20T23:21:24.622Z,96171.34
2023-01-20T23:23:54.822Z,96163.88
2023-01-20T23:26:24.488Z,96157.53
2023-01-20T23:28:53.619Z,96172.66
2023-01-20T23:31:21.126Z,96153.81
2023-01-20T23:33:48.008Z,96156.22
2023-01-20T23:36:17.367Z,96157.00
2023-01-20T23:38:45.013Z,96167.78
2023-01-20T23:41:13.303Z,96174.16
2023-01-20T23:43:41.101Z,96166.47
2023-01-20T23:46:08.353Z,96163.31
2023-01-20T23:48:35.753Z,96159.59
2023-01-20T23:51:02.799Z,96171.59
2023-01-20T23:53:32.468Z,96174.72
2023-01-20T23:56:01.598Z,96173.84
2023-01-20T23:58:28.492Z,96170.44
